Time;durP1;ratioP1;P1;durP2;ratioP2;P2;SDS_P1;SDS_P2;PMS_P1;PMS_P2;Temp;Humidity;BMP_temperature;BMP_pressure;BME280_temperature;BME280_humidity;BME280_pressure;Samples;Min_cycle;Max_cycle;Signal;HPM_P1;HPM_P2
2023/05/13 00:01:29;;;;;;;3.00;2.80;;;;;;;9.62;73.75;95303.19;5074621;28;20331;-72
2023/05/13 00:03:59;;;;;;;3.17;2.97;;;;;;;9.62;73.27;95297.69;5074894;28;20221;-70
2023/05/13 00:06:26;;;;;;;3.20;2.92;;;;;;;9.59;73.00;95296.44;5084364;28;20219;-70
2023/05/13 00:08:56;;;;;;;3.03;2.80;;;;;;;9.55;73.41;95309.28;5086475;28;20332;-70
2023/05/13 00:11:24;;;;;;;3.10;2.83;;;;;;;9.54;74.62;95313.16;5085633;28;20220;-70
2023/05/13 00:13:52;;;;;;;3.50;3.20;;;;;;;9.51;74.38;95322.09;5087951;28;20240;-70
2023/05/13 00:16:22;;;;;;;3.38;3.17;;;;;;;9.51;74.56;95316.59;5088026;28;20212;-70
2023/05/13 00:18:53;;;;;;;3.65;3.10;;;;;;;9.51;74.17;95319.34;5072070;28;20250;-70
2023/05/13 00:21:22;;;;;;;3.78;3.47;;;;;;;9.51;73.17;95322.09;5088369;28;20223;-70
2023/05/13 00:23:50;;;;;;;5.18;3.17;;;;;;;9.51;72.71;95321.28;5086628;28;20217;-70
2023/05/13 00:26:16;;;;;;;3.45;3.15;;;;;;;9.47;72.97;95323.91;5086991;28;20197;-70
2023/05/13 00:28:45;;;;;;;3.42;2.92;;;;;;;9.45;73.84;95325.44;5086799;28;20196;-70
2023/05/13 00:31:16;;;;;;;3.38;3.08;;;;;;;9.47;74.59;95326.66;5089140;28;20182;-70
2023/05/13 00:33:44;;;;;;;4.13;3.70;;;;;;;9.47;74.39;95326.66;5088746;28;20191;-70
2023/05/13 00:36:17;;;;;;;3.08;2.80;;;;;;;9.48;73.87;95322.81;5088699;28;20189;-70
2023/05/13 00:39:29;;;;;;;3.45;3.15;;;;;;;9.47;73.75;95328.63;5087333;28;20712;-70
2023/05/13 00:42:34;;;;;;;3.60;3.30;;;;;;;9.45;73.83;95319.91;5010127;28;20207;-70
2023/05/13 00:45:40;;;;;;;3.70;3.30;;;;;;;9.49;74.76;95323.59;5026595;28;20222;-70
2023/05/13 00:48:45;;;;;;;4.07;3.78;;;;;;;9.46;75.54;95314.06;5010319;28;20226;-70
2023/05/13 00:51:53;;;;;;;4.63;4.32;;;;;;;9.48;75.14;95311.00;5026676;28;20198;-70
2023/05/13 00:55:03;;;;;;;4.60;4.20;;;;;;;9.50;75.52;95303.16;5009949;28;20199;-70
2023/05/13 00:58:07;;;;;;;4.70;4.28;;;;;;;9.42;75.84;95306.81;5009671;28;20199;-70
2023/05/13 01:01:13;;;;;;;5.05;4.53;;;;;;;9.42;76.21;95296.63;4992968;28;20214;-70
2023/05/13 01:04:18;;;;;;;5.28;4.78;;;;;;;9.42;76.61;95295.81;5009134;28;20222;-70
2023/05/13 01:07:23;;;;;;;4.95;4.55;;;;;;;9.39;76.56;95311.06;5009041;28;20216;-71
2023/05/13 01:10:27;;;;;;;5.28;4.35;;;;;;;9.39;76.51;95313.81;5008030;28;20225;-70
2023/05/13 01:13:35;;;;;;;5.05;4.65;;;;;;;9.37;76.15;95319.66;5007136;28;20256;-70
2023/05/13 01:16:45;;;;;;;5.18;4.57;;;;;;;9.34;76.34;95322.28;5008315;28;20207;-70
2023/05/13 01:19:49;;;;;;;5.05;4.55;;;;;;;9.36;75.61;95334.56;5058484;28;20209;-70
2023/05/13 01:22:55;;;;;;;4.55;4.15;;;;;;;9.33;75.03;95342.69;5086296;28;20609;-70
2023/05/13 01:26:03;;;;;;;4.63;4.22;;;;;;;9.30;74.24;95348.88;5087897;28;20224;-70
2023/05/13 01:29:08;;;;;;;4.75;4.35;;;;;;;9.30;74.50;95354.38;5085445;28;20197;-71
2023/05/13 01:32:14;;;;;;;4.90;4.50;;;;;;;9.29;74.38;95350.00;5085719;28;20211;-71
2023/05/13 01:35:22;;;;;;;4.15;3.85;;;;;;;9.28;74.68;95348.41;5083325;28;20189;-71
2023/05/13 01:38:27;;;;;;;4.45;4.10;;;;;;;9.27;74.14;95355.06;5087651;28;20209;-71
2023/05/13 01:41:04;;;;;;;4.68;4.22;;;;;;;9.28;74.93;95340.16;5088239;28;20219;-71
2023/05/13 01:43:31;;;;;;;4.47;4.10;;;;;;;9.26;74.17;95348.75;5083635;28;20200;-71
2023/05/13 01:46:01;;;;;;;4.78;4.25;;;;;;;9.21;73.11;95343.44;5085286;28;20197;-70
2023/05/13 01:48:29;;;;;;;4.68;4.28;;;;;;;9.20;72.76;95352.06;5086051;28;20189;-71
2023/05/13 01:50:56;;;;;;;4.72;4.32;;;;;;;9.19;73.15;95356.75;5086860;28;20197;-71
2023/05/13 01:53:24;;;;;;;4.85;4.55;;;;;;;9.20;75.07;95354.81;5084530;28;20212;-70
2023/05/13 01:55:52;;;;;;;4.68;4.28;;;;;;;9.20;75.30;95347.34;5084869;28;20204;-70
2023/05/13 01:58:24;;;;;;;4.95;4.55;;;;;;;9.12;75.73;95343.53;5085857;28;20216;-70
2023/05/13 02:00:52;;;;;;;4.90;4.47;;;;;;;9.11;76.13;95347.44;5085534;28;20189;-70
2023/05/13 02:03:21;;;;;;;4.70;4.35;;;;;;;9.10;76.35;95345.81;5085996;28;20197;-70
2023/05/13 02:05:49;;;;;;;4.90;4.50;;;;;;;9.15;76.31;95358.56;5084767;28;20213;-70
2023/05/13 02:08:17;;;;;;;4.50;4.20;;;;;;;9.19;76.84;95350.41;5084805;28;20201;-70
2023/05/13 02:10:55;;;;;;;5.10;4.55;;;;;;;9.21;77.36;95337.94;5077234;28;20186;-70
2023/05/13 02:13:26;;;;;;;5.40;5.00;;;;;;;9.21;77.42;95343.44;5075913;28;20232;-70
2023/05/13 02:15:57;;;;;;;4.93;4.43;;;;;;;9.17;77.08;95350.75;5076469;28;20181;-70
2023/05/13 02:18:25;;;;;;;5.20;4.70;;;;;;;9.11;76.67;95354.84;5075295;28;20216;-70
2023/05/13 02:20:54;;;;;;;5.53;5.03;;;;;;;9.14;77.54;95351.44;5075697;28;20212;-70
2023/05/13 02:23:21;;;;;;;5.43;4.88;;;;;;;9.16;77.80;95349.97;5075685;28;20205;-70
2023/05/13 02:25:49;;;;;;;4.93;4.57;;;;;;;9.17;78.49;95356.28;5074450;28;20217;-70
2023/05/13 02:28:17;;;;;;;5.07;4.55;;;;;;;9.17;78.71;95353.53;5075361;28;20250;-70
2023/05/13 02:30:48;;;;;;;5.53;5.00;;;;;;;9.16;78.84;95351.91;5074821;28;20205;-70
2023/05/13 02:33:16;;;;;;;5.40;5.00;;;;;;;9.14;78.16;95360.50;5075343;28;20201;-70
2023/05/13 02:35:44;;;;;;;5.55;4.95;;;;;;;9.15;78.55;95359.38;5074444;28;20200;-70
2023/05/13 02:38:12;;;;;;;4.75;4.45;;;;;;;9.17;78.57;95353.53;5075324;28;20270;-70
2023/05/13 02:40:41;;;;;;;5.43;4.90;;;;;;;9.17;78.66;95353.53;5076532;28;20262;-71
2023/05/13 02:43:09;;;;;;;5.80;5.30;;;;;;;9.16;78.00;95369.22;5075949;28;20194;-70
2023/05/13 02:45:37;;;;;;;4.78;4.38;;;;;;;9.15;77.29;95370.38;5074143;28;20228;-70
2023/05/13 02:48:13;;;;;;;6.07;5.18;;;;;;;9.18;78.12;95366.13;5075607;28;20193;-70
2023/05/13 02:50:40;;;;;;;5.00;4.50;;;;;;;9.18;77.72;95365.31;5074383;28;20224;-70
2023/05/13 02:53:09;;;;;;;5.10;4.70;;;;;;;9.16;77.16;95373.94;5075553;28;20278;-70
2023/05/13 02:55:36;;;;;;;5.15;4.65;;;;;;;9.15;77.05;95377.84;5075578;28;20597;-70
2023/05/13 02:58:05;;;;;;;4.85;4.45;;;;;;;9.11;76.95;95379.63;5075491;28;20198;-70
2023/05/13 03:00:36;;;;;;;5.20;4.80;;;;;;;9.12;77.44;95378.50;5075398;28;20605;-71
2023/05/13 03:03:03;;;;;;;4.75;4.45;;;;;;;9.13;78.23;95386.41;5074832;28;20204;-72
2023/05/13 03:05:32;;;;;;;5.30;4.90;;;;;;;9.13;78.47;95383.66;5075349;28;20224;-72
2023/05/13 03:07:59;;;;;;;5.32;4.82;;;;;;;9.14;77.34;95384.47;5074227;28;20204;-72
2023/05/13 03:10:30;;;;;;;5.25;4.75;;;;;;;9.16;76.08;95388.50;5074507;28;20197;-72
2023/05/13 03:12:59;;;;;;;4.85;4.35;;;;;;;9.18;77.17;95395.59;5074007;28;20582;-72
2023/05/13 03:15:29;;;;;;;5.03;4.63;;;;;;;9.15;77.50;95392.41;5075252;28;20239;-72
2023/05/13 03:17:57;;;;;;;4.97;4.60;;;;;;;9.14;76.98;95390.75;5074656;28;20258;-72
2023/05/13 03:20:27;;;;;;;5.25;4.85;;;;;;;9.15;77.24;95384.13;5073553;28;20249;-72
2023/05/13 03:22:57;;;;;;;5.40;5.00;;;;;;;9.14;76.39;95379.75;5058133;28;20228;-72
2023/05/13 03:25:27;;;;;;;5.22;4.72;;;;;;;9.13;75.77;95374.59;5074988;28;20209;-72
2023/05/13 03:27:56;;;;;;;5.47;5.07;;;;;;;9.17;76.13;95381.03;5074132;28;20207;-72
2023/05/13 03:30:24;;;;;;;5.57;5.15;;;;;;;9.18;76.91;95382.63;5074988;28;20184;-72
2023/05/13 03:32:52;;;;;;;5.40;5.00;;;;;;;9.22;77.34;95399.28;5074000;28;20258;-72
2023/05/13 03:35:23;;;;;;;5.22;4.72;;;;;;;9.23;76.86;95390.72;5074844;28;20204;-72
2023/05/13 03:37:53;;;;;;;5.60;5.15;;;;;;;9.22;76.23;95391.84;5074117;28;20193;-71
2023/05/13 03:40:24;;;;;;;5.82;5.32;;;;;;;9.21;76.11;95398.50;5074398;28;20192;-71
2023/05/13 03:43:15;;;;;;;6.13;5.55;;;;;;;9.20;76.09;95404.34;5073966;28;20200;-71
2023/05/13 03:45:46;;;;;;;6.15;5.57;;;;;;;9.20;77.06;95405.13;5074685;28;20303;-71
2023/05/13 03:48:15;;;;;;;5.82;5.32;;;;;;;9.22;76.54;95404.78;5078204;28;20597;-71
2023/05/13 03:50:42;;;;;;;5.60;5.13;;;;;;;9.21;76.52;95405.94;5078942;28;20177;-71
2023/05/13 03:53:12;;;;;;;6.10;5.60;;;;;;;9.22;77.33;95413.06;5078869;28;20220;-71
2023/05/13 03:55:45;;;;;;;7.00;6.25;;;;;;;9.19;76.99;95410.97;5077632;28;20203;-71
2023/05/13 03:58:14;;;;;;;6.22;5.70;;;;;;;9.19;76.82;95421.97;5078965;28;20570;-71
2023/05/13 04:00:47;;;;;;;6.20;5.70;;;;;;;9.22;77.88;95429.56;5077727;28;20203;-71
2023/05/13 04:03:41;;;;;;;6.40;5.90;;;;;;;9.23;77.99;95423.75;5077388;28;20624;-71
2023/05/13 04:06:47;;;;;;;7.65;6.93;;;;;;;9.25;77.70;95431.66;5000664;28;20234;-71
2023/05/13 04:09:51;;;;;;;6.57;5.95;;;;;;;9.26;77.66;95438.75;5000908;28;20211;-71
2023/05/13 04:13:00;;;;;;;6.57;5.97;;;;;;;9.24;77.00;95433.59;5000559;28;20202;-71
2023/05/13 04:16:05;;;;;;;7.20;6.60;;;;;;;9.23;75.66;95433.94;5001138;28;20695;-75
2023/05/13 04:19:10;;;;;;;7.80;6.15;;;;;;;9.29;77.20;95432.59;5016927;28;20213;-72
2023/05/13 04:22:18;;;;;;;6.32;5.72;;;;;;;9.32;76.79;95432.72;5017333;28;20221;-73
2023/05/13 04:25:22;;;;;;;5.50;5.00;;;;;;;9.30;75.99;95440.53;5000708;28;20317;-70
2023/05/13 04:28:27;;;;;;;6.38;5.88;;;;;;;9.34;75.75;95446.97;5017353;28;20206;-70
2023/05/13 04:31:32;;;;;;;7.88;7.28;;;;;;;9.36;76.42;95446.63;5001378;28;20220;-70
2023/05/13 04:34:36;;;;;;;7.30;6.60;;;;;;;9.37;75.35;95446.28;4999989;28;20847;-69
2023/05/13 04:37:42;;;;;;;5.80;5.30;;;;;;;9.42;74.77;95455.50;5056943;28;20216;-71
2023/05/13 04:40:47;;;;;;;5.43;5.03;;;;;;;9.47;74.62;95453.31;5084514;28;20208;-71
2023/05/13 04:43:53;;;;;;;5.85;5.25;;;;;;;9.52;74.22;95460.59;5079058;28;20189;-68
2023/05/13 04:46:58;;;;;;;6.13;5.53;;;;;;;9.53;73.74;95456.69;5079632;28;20205;-68
2023/05/13 04:50:03;;;;;;;5.97;5.47;;;;;;;9.56;72.03;95456.03;5080247;28;20205;-68
2023/05/13 04:53:09;;;;;;;5.53;5.00;;;;;;;9.60;71.87;95456.97;5079651;28;20196;-68
2023/05/13 04:56:18;;;;;;;6.53;5.53;;;;;;;9.64;71.37;95455.94;5079670;28;20200;-68
2023/05/13 04:59:23;;;;;;;6.38;5.78;;;;;;;9.67;71.91;95453.66;5078682;28;20197;-68
2023/05/13 05:02:29;;;;;;;5.72;5.22;;;;;;;9.78;71.62;95447.41;5079174;28;20651;-68
2023/05/13 05:05:05;;;;;;;6.03;5.47;;;;;;;9.81;71.73;95445.91;5078765;28;20224;-68
2023/05/13 05:07:33;;;;;;;5.32;4.82;;;;;;;9.78;72.02;95443.84;5079520;28;20189;-68
2023/05/13 05:10:01;;;;;;;4.97;4.57;;;;;;;9.77;71.52;95448.53;5078663;28;20208;-68
2023/05/13 05:12:30;;;;;;;5.20;4.70;;;;;;;9.76;71.36;95451.63;5078380;28;20201;-68
2023/05/13 05:14:57;;;;;;;4.72;4.32;;;;;;;9.73;71.67;95458.63;5078614;28;20700;-68
2023/05/13 05:17:26;;;;;;;4.78;4.10;;;;;;;9.73;70.83;95461.38;5078964;28;20193;-68
2023/05/13 05:19:54;;;;;;;4.68;4.28;;;;;;;9.74;70.40;95456.69;5078743;28;20246;-68
2023/05/13 05:22:24;;;;;;;4.72;4.35;;;;;;;9.78;71.32;95457.63;5079026;28;20199;-69
2023/05/13 05:24:52;;;;;;;4.82;4.43;;;;;;;9.83;70.45;95460.16;5079370;28;20203;-69
2023/05/13 05:27:20;;;;;;;4.60;4.20;;;;;;;9.84;70.37;95461.75;5078475;28;20201;-68
2023/05/13 05:29:48;;;;;;;4.40;4.10;;;;;;;9.84;70.24;95459.81;5077899;28;20549;-69
2023/05/13 05:32:16;;;;;;;4.95;4.47;;;;;;;9.84;70.63;95462.59;5078516;28;20200;-68
2023/05/13 05:34:43;;;;;;;5.47;4.97;;;;;;;9.84;71.30;95459.81;5079509;28;20193;-69
2023/05/13 05:37:13;;;;;;;4.75;4.35;;;;;;;9.83;69.88;95457.41;5078004;28;20278;-70
2023/05/13 05:39:47;;;;;;;5.00;4.60;;;;;;;9.84;68.84;95459.00;5076772;28;20193;-69
2023/05/13 05:42:15;;;;;;;5.18;4.68;;;;;;;9.88;70.92;95465.47;5077113;28;20208;-69
2023/05/13 05:44:41;;;;;;;6.03;4.93;;;;;;;9.95;72.77;95464.88;5077145;28;20188;-69
2023/05/13 05:47:09;;;;;;;6.78;5.03;;;;;;;9.97;71.97;95468.13;5060846;28;20208;-69
2023/05/13 05:49:37;;;;;;;5.60;5.10;;;;;;;9.96;69.94;95458.25;5077937;28;20189;-69
2023/05/13 05:52:05;;;;;;;5.25;4.75;;;;;;;10.00;70.04;95467.44;5076670;28;20200;-70
2023/05/13 05:54:31;;;;;;;5.10;4.70;;;;;;;10.03;69.82;95470.34;5076608;28;20205;-69
2023/05/13 05:57:01;;;;;;;6.25;5.65;;;;;;;10.04;69.34;95479.41;5075644;28;20201;-69
2023/05/13 05:59:29;;;;;;;5.95;4.85;;;;;;;10.05;68.63;95473.53;5076989;28;20200;-69
2023/05/13 06:01:57;;;;;;;5.93;4.95;;;;;;;10.07;68.61;95473.22;5076585;28;20204;-69
2023/05/13 06:04:26;;;;;;;5.30;4.85;;;;;;;10.08;69.51;95481.13;5076647;28;20215;-69
2023/05/13 06:06:54;;;;;;;5.97;5.38;;;;;;;10.10;69.83;95472.53;5075771;28;20217;-69
2023/05/13 06:09:24;;;;;;;6.93;5.57;;;;;;;10.11;70.02;95468.63;5077085;28;20219;-69
2023/05/13 06:11:54;;;;;;;5.20;4.80;;;;;;;10.12;69.98;95473.78;5077544;28;20281;-69
2023/05/13 06:14:27;;;;;;;5.75;5.15;;;;;;;10.15;69.40;95474.28;5076116;28;20241;-68
2023/05/13 06:16:55;;;;;;;5.95;5.35;;;;;;;10.15;69.65;95486.09;5076532;28;20200;-69
2023/05/13 06:19:23;;;;;;;5.70;5.28;;;;;;;10.17;69.07;95475.56;5075548;28;20492;-68
2023/05/13 06:21:53;;;;;;;6.05;5.43;;;;;;;10.21;69.91;95476.47;5075755;28;20502;-69
2023/05/13 06:24:24;;;;;;;6.72;6.03;;;;;;;10.30;70.33;95477.19;5076367;28;20214;-69
2023/05/13 06:26:51;;;;;;;6.20;5.60;;;;;;;10.36;69.68;95480.56;5076113;28;20209;-69
2023/05/13 06:29:21;;;;;;;6.20;5.70;;;;;;;10.36;69.70;95473.09;5076510;28;20185;-69
2023/05/13 06:31:53;;;;;;;6.55;5.88;;;;;;;10.38;70.17;95481.00;5076506;28;20185;-69
2023/05/13 06:34:21;;;;;;;6.85;6.00;;;;;;;10.41;69.95;95485.03;5075656;28;20599;-68
2023/05/13 06:36:49;;;;;;;6.35;5.75;;;;;;;10.45;70.91;95488.72;5076676;28;20204;-68
2023/05/13 06:39:17;;;;;;;6.15;5.55;;;;;;;10.45;69.73;95486.78;5076305;28;20196;-69
2023/05/13 06:41:45;;;;;;;6.47;5.35;;;;;;;10.45;69.71;95481.25;5075441;28;20181;-69
2023/05/13 06:44:13;;;;;;;5.97;5.47;;;;;;;10.45;68.92;95485.97;5075513;28;20193;-68
2023/05/13 06:46:44;;;;;;;6.72;6.05;;;;;;;10.49;68.58;95476.66;5075196;28;20231;-69
2023/05/13 06:49:16;;;;;;;6.45;5.88;;;;;;;10.55;68.40;95475.28;5075195;28;20201;-68
2023/05/13 06:51:45;;;;;;;7.03;5.85;;;;;;;10.61;68.65;95473.13;5076651;28;20205;-68
2023/05/13 06:54:13;;;;;;;6.60;5.95;;;;;;;10.76;69.35;95479.94;5075477;28;20201;-70
2023/05/13 06:56:40;;;;;;;6.10;5.53;;;;;;;10.86;69.94;95485.00;5075425;28;20609;-68
2023/05/13 06:59:07;;;;;;;6.30;5.70;;;;;;;10.93;69.04;95485.22;5075979;28;20268;-68
2023/05/13 07:01:35;;;;;;;6.78;5.88;;;;;;;11.02;69.23;95480.38;5076454;28;20258;-68
2023/05/13 07:04:03;;;;;;;6.40;5.80;;;;;;;11.07;68.19;95487.63;5076483;28;20200;-68
2023/05/13 07:06:33;;;;;;;6.40;5.80;;;;;;;11.07;66.97;95488.44;5075698;28;20204;-67
2023/05/13 07:09:01;;;;;;;7.10;6.03;;;;;;;11.17;67.08;95481.63;5074657;28;20208;-66
2023/05/13 07:11:29;;;;;;;7.18;6.47;;;;;;;11.29;66.70;95494.63;5074455;28;20196;-66
2023/05/13 07:13:58;;;;;;;8.40;7.55;;;;;;;11.29;65.88;95494.63;5073974;28;20325;-66
2023/05/13 07:16:28;;;;;;;9.73;8.80;;;;;;;11.32;65.96;95499.44;5070825;28;20196;-66
2023/05/13 07:18:56;;;;;;;9.15;7.93;;;;;;;11.29;65.84;95506.50;5074878;28;20254;-66
2023/05/13 07:21:24;;;;;;;10.77;9.68;;;;;;;11.27;67.54;95514.31;5073653;28;20197;-66
2023/05/13 07:23:54;;;;;;;12.90;11.90;;;;;;;11.24;67.27;95519.72;5074440;28;20208;-66
2023/05/13 07:26:22;;;;;;;9.65;7.68;;;;;;;11.21;67.01;95512.13;5073883;28;20645;-66
2023/05/13 07:28:55;;;;;;;10.98;9.68;;;;;;;11.17;64.18;95509.25;5073824;28;20671;-66
2023/05/13 07:31:23;;;;;;;11.52;10.43;;;;;;;11.15;65.77;95507.97;5073774;28;20205;-66
2023/05/13 07:33:51;;;;;;;8.55;7.78;;;;;;;11.11;63.26;95507.06;5074487;28;20204;-66
2023/05/13 07:36:22;;;;;;;8.02;7.32;;;;;;;11.05;63.01;95501.78;5074322;28;20189;-66
2023/05/13 07:38:52;;;;;;;8.15;7.35;;;;;;;11.06;63.84;95500.63;5074101;28;20185;-66
2023/05/13 07:41:26;;;;;;;7.40;6.65;;;;;;;11.10;63.67;95503.50;5074236;28;20224;-66
2023/05/13 07:43:57;;;;;;;7.88;5.55;;;;;;;11.14;62.58;95506.38;5074173;28;20199;-66
2023/05/13 07:46:25;;;;;;;7.70;5.50;;;;;;;11.16;62.11;95504.06;5073786;28;20228;-66
2023/05/13 07:48:55;;;;;;;6.72;5.80;;;;;;;11.21;62.10;95512.13;5074700;28;20195;-66
2023/05/13 07:51:26;;;;;;;5.95;5.18;;;;;;;11.26;62.62;95511.91;5073725;28;20621;-66
2023/05/13 07:53:54;;;;;;;8.93;5.88;;;;;;;11.28;60.00;95509.56;5074588;28;20262;-66
2023/05/13 07:56:27;;;;;;;6.38;5.78;;;;;;;11.27;60.44;95517.06;5074582;28;20205;-66
2023/05/13 07:58:56;;;;;;;6.53;5.93;;;;;;;11.35;62.12;95511.75;5074518;28;20602;-66
2023/05/13 08:01:24;;;;;;;6.65;6.03;;;;;;;11.38;62.52;95511.06;5073926;28;20614;-66
2023/05/13 08:03:52;;;;;;;6.60;6.00;;;;;;;11.39;61.86;95509.91;5073792;28;20200;-66
2023/05/13 08:06:20;;;;;;;6.85;6.13;;;;;;;11.45;61.78;95500.25;5074194;28;20224;-66
2023/05/13 08:08:48;;;;;;;7.53;6.18;;;;;;;11.54;63.73;95492.63;5075087;28;20185;-66
2023/05/13 08:11:16;;;;;;;8.50;7.05;;;;;;;11.62;63.90;95494.47;5074888;28;20205;-66
2023/05/13 08:13:48;;;;;;;6.80;6.20;;;;;;;11.64;61.34;95494.91;5074550;28;20236;-66
2023/05/13 08:16:16;;;;;;;8.65;6.78;;;;;;;11.71;62.15;95489.59;5074436;28;20242;-66
2023/05/13 08:18:45;;;;;;;9.85;6.47;;;;;;;11.73;61.22;95483.72;5074088;28;20676;-66
2023/05/13 08:21:13;;;;;;;6.93;6.32;;;;;;;11.71;60.50;95481.28;5075163;28;20201;-66
2023/05/13 08:23:44;;;;;;;7.82;7.03;;;;;;;11.71;60.08;95484.06;5074202;28;20201;-66
2023/05/13 08:26:12;;;;;;;7.22;6.53;;;;;;;11.79;62.09;95480.34;5073932;28;20266;-66
2023/05/13 08:28:40;;;;;;;9.15;7.65;;;;;;;11.87;62.57;95483.34;5073730;28;20201;-66
2023/05/13 08:31:14;;;;;;;10.02;8.90;;;;;;;12.03;62.30;95471.19;5074288;28;20193;-66
2023/05/13 08:33:44;;;;;;;10.70;9.60;;;;;;;12.25;63.31;95477.31;5075636;28;20193;-66
2023/05/13 08:36:13;;;;;;;8.63;7.70;;;;;;;12.31;61.92;95472.31;5077546;28;20232;-67
2023/05/13 08:38:41;;;;;;;9.25;8.45;;;;;;;12.46;63.63;95475.13;5077350;28;20215;-66
2023/05/13 08:41:09;;;;;;;8.50;7.80;;;;;;;12.53;62.88;95472.53;5061244;28;20205;-66
2023/05/13 08:43:42;;;;;;;8.52;7.75;;;;;;;12.53;62.57;95468.97;5077877;28;20223;-66
2023/05/13 08:46:12;;;;;;;8.88;8.00;;;;;;;12.51;62.12;95479.59;5077041;28;20217;-66
2023/05/13 08:48:43;;;;;;;8.48;7.68;;;;;;;12.50;62.26;95469.69;5078075;28;20246;-66
2023/05/13 08:51:10;;;;;;;8.20;7.38;;;;;;;12.60;63.48;95454.50;5077540;28;20292;-66
2023/05/13 08:53:39;;;;;;;8.63;7.93;;;;;;;12.68;61.76;95453.53;5077638;28;20197;-67
2023/05/13 08:56:07;;;;;;;8.45;7.75;;;;;;;12.77;62.77;95454.94;5077917;28;20197;-68
2023/05/13 08:58:34;;;;;;;9.68;8.82;;;;;;;12.86;61.77;95456.75;5077994;28;20246;-68
2023/05/13 09:01:02;;;;;;;8.70;7.90;;;;;;;12.99;62.66;95453.50;5077313;28;20254;-68
2023/05/13 09:03:35;;;;;;;8.27;7.43;;;;;;;13.10;63.00;95439.91;5077510;28;20189;-68
2023/05/13 09:06:04;;;;;;;8.82;8.00;;;;;;;13.27;62.62;95437.97;5078155;28;20506;-68
2023/05/13 09:08:32;;;;;;;8.52;7.72;;;;;;;13.43;61.68;95436.72;5076552;28;20605;-68
2023/05/13 09:11:04;;;;;;;7.72;7.03;;;;;;;13.76;61.58;95441.00;5078124;28;20605;-68
2023/05/13 09:13:32;;;;;;;8.57;7.72;;;;;;;13.92;61.21;95432.63;5077610;28;20277;-68
2023/05/13 09:16:04;;;;;;;8.77;8.00;;;;;;;14.02;61.34;95439.56;5077083;28;20207;-68
2023/05/13 09:18:57;;;;;;;9.25;8.38;;;;;;;14.15;61.92;95441.78;5077594;28;20209;-67
2023/05/13 09:21:34;;;;;;;8.98;8.23;;;;;;;14.21;60.28;95433.97;5077269;28;20255;-67
2023/05/13 09:24:10;;;;;;;9.27;8.38;;;;;;;14.28;60.70;95438.88;5077596;28;20192;-67
2023/05/13 09:26:41;;;;;;;8.80;7.90;;;;;;;14.42;61.15;95437.16;5076910;28;20538;-67
2023/05/13 09:29:20;;;;;;;10.00;9.10;;;;;;;14.55;58.98;95431.44;5076891;28;20189;-68
2023/05/13 09:31:51;;;;;;;8.85;8.05;;;;;;;14.61;59.69;95428.00;5076797;28;20300;-68
2023/05/13 09:34:36;;;;;;;9.50;8.50;;;;;;;14.76;61.16;95431.03;5076608;28;20224;-67
2023/05/13 09:37:09;;;;;;;9.45;8.65;;;;;;;14.98;62.16;95424.63;5076315;28;20274;-67
2023/05/13 09:39:50;;;;;;;12.10;9.32;;;;;;;15.21;59.65;95427.38;5077023;28;20201;-67
2023/05/13 09:42:21;;;;;;;10.20;8.90;;;;;;;15.30;60.02;95419.56;5075968;28;20250;-67
2023/05/13 09:44:51;;;;;;;9.25;8.35;;;;;;;15.40;60.40;95418.13;5075648;28;20282;-68
2023/05/13 09:47:22;;;;;;;11.20;9.05;;;;;;;15.48;58.89;95414.25;5076870;28;20252;-68
2023/05/13 09:49:57;;;;;;;9.82;8.93;;;;;;;15.57;59.98;95412.00;5076663;28;20185;-67
2023/05/13 09:52:25;;;;;;;9.32;8.43;;;;;;;15.61;57.58;95406.47;5075560;28;20200;-68
2023/05/13 09:54:56;;;;;;;8.60;7.80;;;;;;;15.63;58.71;95409.69;5076796;28;20208;-68
2023/05/13 09:57:24;;;;;;;9.00;8.20;;;;;;;15.74;59.66;95405.09;5076058;28;20664;-67
2023/05/13 09:59:54;;;;;;;9.68;8.40;;;;;;;16.01;59.15;95402.22;5075939;28;20262;-67
2023/05/13 10:02:21;;;;;;;9.32;8.43;;;;;;;16.15;58.50;95407.97;5075679;28;20197;-67
2023/05/13 10:04:51;;;;;;;8.95;8.13;;;;;;;16.28;57.82;95406.53;5075669;28;20565;-67
2023/05/13 10:07:23;;;;;;;9.00;8.20;;;;;;;16.48;59.07;95403.53;5076330;28;20255;-67
2023/05/13 10:09:53;;;;;;;9.82;8.77;;;;;;;16.58;57.97;95411.19;5076831;28;20199;-67
2023/05/13 10:12:22;;;;;;;9.00;8.10;;;;;;;16.52;58.89;95410.75;5076113;28;20193;-67
2023/05/13 10:14:51;;;;;;;10.18;8.43;;;;;;;16.40;56.73;95407.44;5076257;28;20315;-67
2023/05/13 10:17:20;;;;;;;10.25;8.02;;;;;;;16.23;57.07;95408.84;5075877;28;20584;-67
2023/05/13 10:19:52;;;;;;;9.13;8.23;;;;;;;16.16;58.79;95411.53;5076778;28;20239;-68
2023/05/13 10:22:28;;;;;;;9.38;8.57;;;;;;;16.09;57.88;95410.31;5079667;28;20241;-69
2023/05/13 10:24:58;;;;;;;9.63;8.77;;;;;;;16.22;59.27;95396.13;5078491;28;20301;-69
2023/05/13 10:27:31;;;;;;;9.20;8.40;;;;;;;16.43;58.14;95399.13;5079735;28;20231;-69
2023/05/13 10:30:04;;;;;;;10.27;8.75;;;;;;;16.56;59.22;95392.09;5079468;28;20188;-70
2023/05/13 10:32:32;;;;;;;9.27;8.05;;;;;;;16.91;57.64;95392.81;5079341;28;20205;-69
2023/05/13 10:35:04;;;;;;;8.55;7.65;;;;;;;17.02;56.34;95388.13;5080025;28;20181;-70
2023/05/13 10:38:04;;;;;;;9.52;8.35;;;;;;;17.18;55.82;95394.22;5079989;28;20192;-70
2023/05/13 10:41:08;;;;;;;9.50;8.70;;;;;;;17.01;54.82;95390.09;5072511;28;20228;-70
2023/05/13 10:43:37;;;;;;;8.48;7.68;;;;;;;17.20;55.36;95391.81;5078786;28;20247;-69
2023/05/13 10:46:06;;;;;;;8.55;7.80;;;;;;;17.39;54.91;95398.31;5079811;28;20586;-69
2023/05/13 10:48:50;;;;;;;10.82;9.55;;;;;;;17.51;54.94;95406.38;5077834;28;20209;-69
2023/05/13 10:51:23;;;;;;;9.77;8.77;;;;;;;17.30;53.15;95402.25;5081060;28;20275;-70
2023/05/13 10:53:54;;;;;;;9.48;8.68;;;;;;;17.20;53.25;95399.38;5082457;28;20193;-70
2023/05/13 10:56:24;;;;;;;9.07;8.20;;;;;;;17.26;54.12;95401.44;5081027;28;20195;-70
2023/05/13 10:59:01;;;;;;;8.57;7.78;;;;;;;17.47;54.31;95395.19;5082408;28;20189;-70
2023/05/13 11:01:30;;;;;;;7.85;7.03;;;;;;;17.64;55.11;95399.25;5082382;28;20192;-70
2023/05/13 11:04:00;;;;;;;8.57;7.88;;;;;;;17.93;54.07;95396.63;5081056;28;20201;-70
2023/05/13 11:06:31;;;;;;;8.70;8.00;;;;;;;18.01;52.62;95396.28;5081097;28;20194;-70
2023/05/13 11:08:58;;;;;;;10.77;8.20;;;;;;;17.98;52.09;95394.28;5077815;28;20197;-69
2023/05/13 11:11:48;;;;;;;8.80;8.00;;;;;;;18.00;52.20;95391.88;5078212;28;20609;-70
2023/05/13 11:14:19;;;;;;;8.52;7.72;;;;;;;18.10;52.42;95381.94;5078683;28;20248;-69
2023/05/13 11:16:52;;;;;;;8.30;7.50;;;;;;;18.11;49.98;95380.75;5077917;28;20193;-69
2023/05/13 11:19:25;;;;;;;7.65;6.93;;;;;;;18.28;51.81;95377.22;5078239;28;20609;-69
2023/05/13 11:21:56;;;;;;;7.35;6.75;;;;;;;18.39;50.16;95371.66;5078191;28;20291;-69
2023/05/13 11:24:23;;;;;;;7.75;6.75;;;;;;;18.38;49.07;95366.47;5077406;28;20201;-69
2023/05/13 11:26:53;;;;;;;8.15;7.35;;;;;;;18.39;50.27;95368.84;5078618;28;20217;-70
2023/05/13 11:29:32;;;;;;;9.88;8.70;;;;;;;18.32;49.33;95362.47;5077230;28;20205;-69
2023/05/13 11:32:02;;;;;;;9.35;8.32;;;;;;;18.51;51.35;95354.50;5078441;28;20281;-70
2023/05/13 11:34:31;;;;;;;8.77;7.88;;;;;;;18.85;50.48;95348.56;5082347;28;20256;-70
2023/05/13 11:37:08;;;;;;;8.07;7.18;;;;;;;18.94;47.61;95343.38;5081002;28;20185;-70
2023/05/13 11:39:39;;;;;;;6.82;6.07;;;;;;;19.07;48.68;95349.34;5080421;28;20200;-70
2023/05/13 11:42:08;;;;;;;7.70;6.65;;;;;;;19.30;47.59;95339.72;5084480;28;20208;-70
2023/05/13 11:44:38;;;;;;;6.70;6.10;;;;;;;19.39;48.32;95342.88;5081438;28;20200;-70
2023/05/13 11:49:54;;;;;;;7.45;6.60;;;;;;;19.51;47.10;95333.28;5080238;28;20188;-70
2023/05/13 11:52:22;;;;;;;7.70;6.97;;;;;;;19.45;45.25;95335.69;5080364;28;20200;-69
2023/05/13 11:54:52;;;;;;;8.20;7.43;;;;;;;19.39;45.85;95328.91;5081437;28;20189;-69
2023/05/13 11:57:21;;;;;;;7.70;6.60;;;;;;;19.37;47.32;95334.13;5078558;28;20296;-73
2023/05/13 11:59:58;;;;;;;7.93;7.10;;;;;;;19.09;45.58;95337.75;5075488;28;20617;-68
2023/05/13 12:02:28;;;;;;;7.53;6.78;;;;;;;18.76;46.90;95325.81;5076723;28;20212;-68
2023/05/13 12:04:58;;;;;;;8.00;7.20;;;;;;;18.82;45.28;95321.44;5076238;28;20209;-68
2023/05/13 12:07:29;;;;;;;6.85;6.05;;;;;;;18.75;45.88;95322.22;5077178;28;20663;-68
2023/05/13 12:09:59;;;;;;;6.88;6.28;;;;;;;18.36;45.94;95324.97;5079939;28;20601;-68
2023/05/13 12:12:28;;;;;;;6.72;6.03;;;;;;;18.43;47.41;95316.59;5079255;28;20193;-68
2023/05/13 12:15:03;;;;;;;7.95;7.25;;;;;;;18.63;47.60;95325.41;5080438;28;20341;-68
2023/05/13 12:17:32;;;;;;;7.18;5.80;;;;;;;18.66;47.25;95327.38;5079750;28;20210;-68